Time;durP1;ratioP1;P1;durP2;ratioP2;P2;SDS_P1;SDS_P2;PMS_P1;PMS_P2;Temp;Humidity;BMP_temperature;BMP_pressure;BME280_temperature;BME280_humidity;BME280_pressure;Samples;Min_cycle;Max_cycle;Signal;HPM_P1;HPM_P2
2022/07/14 00:03:46;;;;;;;2.40;1.80;;;;;;;20.05;51.28;98684.16;221770;1268;22589;-72
2022/07/14 00:08:49;;;;;;;2.00;1.70;;;;;;;20.01;51.81;98676.23;221640;1268;25297;-72
2022/07/14 00:14:04;;;;;;;4.40;2.00;;;;;;;19.95;52.02;98676.73;221702;1268;25309;-72
2022/07/14 00:19:21;;;;;;;3.20;2.00;;;;;;;19.93;52.10;98673.40;221658;1268;259524;-73
2022/07/14 00:24:43;;;;;;;2.70;2.00;;;;;;;19.92;52.11;98674.55;221663;1268;22536;-72
2022/07/14 00:29:46;;;;;;;2.50;1.90;;;;;;;19.93;52.44;98673.72;221727;1268;22610;-72
2022/07/14 00:34:55;;;;;;;2.80;2.10;;;;;;;19.94;52.36;98670.33;221177;1268;22608;-72
2022/07/14 00:40:00;;;;;;;3.10;2.00;;;;;;;19.96;52.25;98662.45;221955;1268;24222;-72
2022/07/14 00:45:11;;;;;;;2.90;2.10;;;;;;;19.97;52.42;98657.44;221725;1268;22626;-72
2022/07/14 00:50:15;;;;;;;2.20;1.90;;;;;;;19.99;52.44;98658.70;221938;1268;25370;-73
2022/07/14 00:55:17;;;;;;;3.40;2.20;;;;;;;20.00;52.42;98655.48;221313;1269;23273;-74
2022/07/14 01:00:20;;;;;;;4.10;2.20;;;;;;;20.01;52.31;98648.81;221567;1268;22575;-73
2022/07/14 01:05:25;;;;;;;2.90;2.10;;;;;;;20.01;52.14;98647.02;221434;1268;25344;-72
2022/07/14 01:10:30;;;;;;;2.60;2.20;;;;;;;20.02;52.41;98645.79;221392;1268;25244;-73
2022/07/14 01:15:33;;;;;;;2.20;2.00;;;;;;;20.01;52.41;98640.74;221418;1268;25234;-73
2022/07/14 01:20:35;;;;;;;4.40;2.20;;;;;;;20.03;52.49;98646.69;221384;1268;22707;-73
2022/07/14 01:25:41;;;;;;;3.60;2.30;;;;;;;20.04;52.37;98639.49;221482;1268;22547;-73
2022/07/14 01:30:46;;;;;;;4.80;2.30;;;;;;;20.05;52.38;98639.35;221396;1268;22529;-73
2022/07/14 01:35:56;;;;;;;3.00;1.80;;;;;;;20.03;52.48;98634.17;221479;1268;22556;-72
2022/07/14 01:40:58;;;;;;;3.10;2.10;;;;;;;20.02;52.39;98634.46;221444;1268;25315;-72
2022/07/14 01:46:01;;;;;;;2.20;1.90;;;;;;;20.01;52.49;98635.75;221683;1267;24331;-73
2022/07/14 01:51:04;;;;;;;2.80;2.20;;;;;;;20.00;52.32;98631.62;221645;1268;24332;-73
2022/07/14 01:56:09;;;;;;;2.30;1.70;;;;;;;19.98;52.45;98628.48;221611;1268;22803;-73
2022/07/14 02:06:36;;;;;;;1.80;1.50;;;;;;;19.93;52.21;98628.61;221430;1268;22727;-72
2022/07/14 02:17:01;;;;;;;1.80;1.50;;;;;;;19.95;51.99;98625.23;221597;1268;24371;-74
2022/07/14 02:22:04;;;;;;;2.90;1.60;;;;;;;19.97;52.14;98621.08;221565;1268;22563;-72
2022/07/14 02:27:07;;;;;;;2.70;1.70;;;;;;;19.96;52.01;98625.18;221607;1268;22544;-73
2022/07/14 02:32:10;;;;;;;3.20;1.80;;;;;;;19.99;51.74;98626.09;221440;1268;24285;-72
2022/07/14 02:37:14;;;;;;;1.50;1.40;;;;;;;20.04;51.45;98622.40;221468;1268;22681;-73
2022/07/14 02:42:16;;;;;;;2.10;1.50;;;;;;;20.07;51.40;98627.34;221363;1268;24923;-73
2022/07/14 02:47:19;;;;;;;2.90;1.50;;;;;;;20.08;52.01;98629.17;221368;1268;23219;-73
2022/07/14 02:52:21;;;;;;;2.10;1.80;;;;;;;20.07;52.56;98622.68;221500;1268;22605;-73
2022/07/14 02:57:26;;;;;;;1.40;1.30;;;;;;;20.01;52.68;98611.06;221252;1268;23121;-72
2022/07/14 03:02:32;;;;;;;1.90;1.60;;;;;;;19.95;52.72;98617.63;221547;1268;23821;-73
2022/07/14 03:07:35;;;;;;;1.50;1.40;;;;;;;19.94;52.36;98619.92;221532;1268;22546;-73
2022/07/14 03:12:48;;;;;;;1.30;1.20;;;;;;;19.97;52.31;98621.33;221766;1268;24146;-72
2022/07/14 03:17:51;;;;;;;1.40;1.20;;;;;;;20.00;52.29;98624.39;221586;1268;25250;-73
2022/07/14 03:22:54;;;;;;;1.80;1.20;;;;;;;20.02;52.24;98627.46;221708;1268;25286;-73
2022/07/14 03:27:58;;;;;;;2.00;1.30;;;;;;;20.06;52.14;98621.66;221647;1267;25302;-73
2022/07/14 03:33:19;;;;;;;2.00;1.40;;;;;;;20.15;52.12;98621.02;221725;1268;25367;-72
2022/07/14 03:38:38;;;;;;;2.30;1.30;;;;;;;20.30;51.73;98625.03;221642;1268;22651;-72
2022/07/14 03:43:43;;;;;;;3.10;1.10;;;;;;;20.48;51.68;98626.64;221519;1266;22645;-73
2022/07/14 03:48:48;;;;;;;2.20;1.30;;;;;;;20.66;51.52;98630.27;221613;1268;22646;-72
2022/07/14 03:53:50;;;;;;;1.40;1.30;;;;;;;20.92;51.07;98640.81;221461;1268;25455;-73
2022/07/14 03:58:53;;;;;;;1.70;1.10;;;;;;;21.04;50.57;98643.20;221592;1268;25380;-72
2022/07/14 04:03:57;;;;;;;3.00;1.30;;;;;;;21.09;50.36;98643.60;221247;1268;22538;-73
2022/07/14 04:09:00;;;;;;;1.60;1.20;;;;;;;21.09;50.43;98634.96;221716;1268;25305;-73
2022/07/14 04:14:09;;;;;;;1.80;1.30;;;;;;;21.13;50.56;98639.93;221523;1268;22761;-72
2022/07/14 04:19:12;;;;;;;1.10;1.00;;;;;;;21.21;50.51;98642.80;222062;1268;25388;-73
2022/07/14 04:24:25;;;;;;;1.60;1.40;;;;;;;21.29;50.52;98647.15;221671;1268;22700;-73
2022/07/14 04:29:28;;;;;;;1.30;1.20;;;;;;;21.31;50.60;98651.70;221477;1268;22557;-73
2022/07/14 04:34:34;;;;;;;2.60;1.20;;;;;;;21.37;50.67;98654.13;221427;1268;22548;-74
2022/07/14 04:39:50;;;;;;;1.30;1.10;;;;;;;21.42;50.54;98648.83;221642;1268;22577;-73
2022/07/14 04:44:52;;;;;;;1.60;1.30;;;;;;;21.49;50.26;98646.30;221807;1268;24325;-74
2022/07/14 04:55:22;;;;;;;1.60;1.40;;;;;;;21.68;49.91;98646.56;221850;1268;23345;-72
2022/07/14 05:00:39;;;;;;;1.80;1.60;;;;;;;21.84;49.92;98642.04;221685;1268;22796;-73
2022/07/14 05:05:42;;;;;;;1.80;1.60;;;;;;;22.02;49.79;98639.95;221589;1268;22568;-74
2022/07/14 05:10:50;;;;;;;1.90;1.50;;;;;;;22.22;49.49;98641.02;221629;1268;22772;-73
2022/07/14 05:16:02;;;;;;;1.50;1.40;;;;;;;22.35;49.49;98649.70;221681;1268;23155;-72
2022/07/14 05:21:05;;;;;;;1.50;1.20;;;;;;;22.46;49.53;98653.52;221776;1268;22590;-72
2022/07/14 05:26:12;;;;;;;1.80;1.30;;;;;;;22.53;49.62;98656.33;221696;1268;22527;-74
2022/07/14 05:31:22;;;;;;;2.30;1.50;;;;;;;22.62;49.60;98656.35;221899;1268;24270;-73
2022/07/14 05:36:30;;;;;;;2.90;1.60;;;;;;;22.75;49.80;98658.67;221833;1268;22680;-74
2022/07/14 05:41:34;;;;;;;1.70;1.40;;;;;;;22.88;49.17;98662.96;221642;1268;25714;-73
2022/07/14 05:46:37;;;;;;;2.70;1.50;;;;;;;23.02;48.86;98672.02;222148;1268;25466;-74
2022/07/14 05:52:02;;;;;;;1.60;1.50;;;;;;;23.16;48.16;98676.23;221145;1273;22566;-74
2022/07/14 05:57:09;;;;;;;2.50;1.70;;;;;;;23.26;47.93;98681.25;221846;1271;23705;-76
2022/07/14 06:02:11;;;;;;;2.00;1.90;;;;;;;23.35;48.10;98675.33;221993;1271;25586;-75
2022/07/14 06:07:14;;;;;;;2.50;2.10;;;;;;;23.50;48.33;98670.93;221848;1273;22550;-75
2022/07/14 06:12:22;;;;;;;2.40;2.00;;;;;;;23.68;47.90;98673.18;221738;1270;23436;-74
2022/07/14 06:17:31;;;;;;;1.90;1.80;;;;;;;23.84;47.48;98672.69;221417;1271;25245;-75
2022/07/14 06:22:47;;;;;;;2.10;2.00;;;;;;;24.02;46.92;98673.60;221938;1268;25307;-76
2022/07/14 06:28:26;;;;;;;2.10;1.90;;;;;;;24.19;46.80;98678.56;221225;1271;24444;-76
2022/07/14 06:33:33;;;;;;;2.60;2.40;;;;;;;24.37;46.42;98667.77;221512;1274;22549;-76
2022/07/14 06:39:01;;;;;;;2.40;2.20;;;;;;;24.56;46.24;98667.55;221737;1273;22474;-75
2022/07/14 06:44:42;;;;;;;2.40;2.20;;;;;;;24.72;45.78;98672.97;221029;1275;22898;-76
2022/07/14 06:50:11;;;;;;;2.50;2.30;;;;;;;24.83;45.91;98673.46;220912;1273;25493;-75
2022/07/14 06:55:13;;;;;;;2.50;2.30;;;;;;;25.01;45.77;98666.85;221181;1273;23811;-76
2022/07/14 07:00:25;;;;;;;3.60;2.80;;;;;;;25.21;45.41;98669.80;220876;1273;22559;-75
2022/07/14 07:11:15;;;;;;;3.40;2.70;;;;;;;25.77;44.92;98684.64;221447;1271;23799;-76
2022/07/14 07:16:29;;;;;;;2.70;2.50;;;;;;;25.92;44.02;98684.08;222100;1268;22600;-75
2022/07/14 07:21:31;;;;;;;2.80;2.60;;;;;;;26.00;43.68;98684.95;222017;1268;24271;-75
2022/07/14 07:26:36;;;;;;;3.70;3.20;;;;;;;26.09;43.52;98685.11;221764;1268;25446;-75
2022/07/14 07:31:44;;;;;;;3.40;3.00;;;;;;;26.10;43.09;98682.44;221980;1268;23985;-75
2022/07/14 07:36:46;;;;;;;5.70;3.00;;;;;;;26.07;42.90;98677.20;222137;1268;22685;-76
2022/07/14 07:42:15;;;;;;;6.90;5.00;;;;;;;26.05;42.92;98674.54;222038;1268;26511;-76
2022/07/14 07:47:42;;;;;;;3.00;2.70;;;;;;;26.05;42.95;98673.05;221097;1271;25198;-75
2022/07/14 07:52:48;;;;;;;2.80;2.60;;;;;;;26.07;42.75;98674.30;221312;1271;22587;-75
2022/07/14 07:57:54;;;;;;;;;;;;;;;26.14;42.81;98675.13;221362;1271;23364;-76
2022/07/14 08:02:57;;;;;;;3.10;2.70;;;;;;;26.21;42.51;98672.23;221478;1271;26527;-75
2022/07/14 08:08:07;;;;;;;2.60;2.40;;;;;;;26.20;42.19;98670.51;221131;1271;22592;-76
2022/07/14 08:13:48;;;;;;;2.80;2.40;;;;;;;26.31;42.14;98676.35;221492;1271;22535;-76
2022/07/14 08:19:17;;;;;;;2.40;2.20;;;;;;;26.44;41.53;98681.09;221947;1268;22538;-76
2022/07/14 08:24:19;;;;;;;2.30;2.10;;;;;;;26.50;41.37;98682.17;221870;1268;22549;-76
2022/07/14 08:29:21;;;;;;;3.60;2.20;;;;;;;26.59;41.27;98685.34;221805;1268;22554;-75
2022/07/14 08:34:47;;;;;;;2.70;2.40;;;;;;;26.70;40.79;98682.98;221723;1269;22697;-76
2022/07/14 08:40:13;;;;;;;2.40;2.30;;;;;;;26.79;40.50;98679.79;221751;1268;22935;-75
2022/07/14 08:45:21;;;;;;;3.50;2.80;;;;;;;26.86;40.43;98678.04;221807;1268;23150;-75
2022/07/14 08:50:36;;;;;;;2.70;2.50;;;;;;;26.92;40.38;98676.44;222070;1269;22869;-75
2022/07/14 08:56:00;;;;;;;2.70;2.50;;;;;;;27.10;40.75;98678.69;221811;1268;22946;-76
2022/07/14 09:01:02;;;;;;;4.30;2.30;;;;;;;27.20;40.39;98675.41;221941;1268;25308;-76
2022/07/14 09:06:33;;;;;;;2.60;2.40;;;;;;;27.26;39.99;98670.49;222159;1268;22534;-74
2022/07/14 09:12:34;;;;;;;2.30;2.10;;;;;;;27.41;40.11;98663.12;222102;1268;22766;-75
2022/07/14 09:17:29;;;;;;;2.80;2.60;;;;;;;27.59;39.63;98661.85;222010;1268;22531;-75
2022/07/14 09:22:32;;;;;;;2.70;2.50;;;;;;;27.67;39.43;98655.59;222242;1268;24199;-74
2022/07/14 09:27:53;;;;;;;2.90;2.70;;;;;;;27.74;39.36;98654.11;221899;1268;22578;-74
2022/07/14 09:33:04;;;;;;;2.60;2.30;;;;;;;27.94;39.73;98653.20;221542;1271;22487;-73
2022/07/14 09:38:23;;;;;;;3.30;2.90;;;;;;;28.24;39.22;98648.90;221406;1268;22567;-74
2022/07/14 09:43:33;;;;;;;2.80;2.60;;;;;;;28.43;39.12;98649.77;221640;1271;22601;-74
2022/07/14 09:48:48;;;;;;;2.30;2.10;;;;;;;28.67;38.57;98647.14;221527;1270;24201;-74
2022/07/14 09:53:50;;;;;;;3.40;2.50;;;;;;;29.09;38.54;98644.05;222065;1268;22528;-74
2022/07/14 09:58:56;;;;;;;2.80;2.60;;;;;;;29.63;38.00;98643.58;221895;1268;22625;-75
2022/07/14 10:04:01;;;;;;;7.30;3.10;;;;;;;30.18;37.68;98635.52;221778;1268;22556;-74
2022/07/14 10:09:06;;;;;;;3.40;3.10;;;;;;;30.44;36.73;98633.76;221923;1268;24337;-74
2022/07/14 10:14:10;;;;;;;2.80;2.50;;;;;;;30.47;36.57;98625.89;221842;1268;22566;-74
2022/07/14 10:19:28;;;;;;;3.30;3.00;;;;;;;30.35;36.15;98620.96;221875;1268;25444;-74
2022/07/14 10:24:41;;;;;;;2.40;2.20;;;;;;;30.34;36.13;98618.79;221855;1268;22788;-74
2022/07/14 10:29:59;;;;;;;5.40;4.90;;;;;;;30.44;36.51;98608.10;222083;1268;25417;-74
2022/07/14 10:35:39;;;;;;;4.90;3.20;;;;;;;30.68;36.54;98600.40;221797;1267;25364;-74
2022/07/14 10:40:42;;;;;;;3.10;2.90;;;;;;;30.84;36.03;98603.59;221932;1268;22541;-73
2022/07/14 10:45:49;;;;;;;2.60;2.40;;;;;;;31.04;35.55;98602.20;222020;1268;22528;-74
2022/07/14 10:51:14;;;;;;;2.90;2.60;;;;;;;31.18;35.11;98598.81;221835;1268;22729;-73
2022/07/14 10:56:25;;;;;;;5.80;3.70;;;;;;;31.28;35.02;98596.50;221738;1271;23834;-74
2022/07/14 11:01:27;;;;;;;2.90;2.70;;;;;;;31.38;35.11;98594.75;221950;1268;25370;-76
2022/07/14 11:06:33;;;;;;;2.90;2.70;;;;;;;31.23;34.67;98588.88;221945;1268;23352;-75
2022/07/14 11:11:35;;;;;;;3.60;3.30;;;;;;;30.97;35.11;98577.40;222692;1268;24182;-74
2022/07/14 11:16:50;;;;;;;4.20;2.70;;;;;;;30.77;35.54;98569.33;221925;1268;22717;-75
2022/07/14 11:22:20;;;;;;;4.70;3.00;;;;;;;30.84;35.54;98567.19;222081;1268;22583;-75
2022/07/14 11:27:48;;;;;;;3.50;3.20;;;;;;;30.91;35.24;98559.42;222177;1268;23941;-75
2022/07/14 11:33:08;;;;;;;;;;;;;;;30.94;35.36;98562.52;222087;1268;25923;-75
2022/07/14 11:38:28;;;;;;;3.30;2.60;;;;;;;30.84;35.86;98560.64;221995;1268;22669;-74
2022/07/14 11:43:30;;;;;;;4.20;3.30;;;;;;;30.68;35.92;98559.57;222289;1268;23733;-75
2022/07/14 11:48:48;;;;;;;3.20;2.90;;;;;;;30.44;36.23;98555.98;222182;1268;24220;-74
2022/07/14 11:53:59;;;;;;;3.70;3.40;;;;;;;30.32;36.40;98559.14;222207;1268;22543;-74
2022/07/14 11:59:05;;;;;;;4.10;3.80;;;;;;;30.40;36.61;98561.11;222131;1268;25196;-74
2022/07/14 12:04:14;;;;;;;3.60;3.30;;;;;;;30.40;36.78;98560.48;222559;1271;23107;-75
2022/07/14 12:09:30;;;;;;;3.40;3.20;;;;;;;30.42;36.77;98549.63;222538;1268;23367;-75
2022/07/14 12:14:49;;;;;;;5.70;3.30;;;;;;;30.50;37.08;98543.40;222036;1268;22531;-75
2022/07/14 12:19:54;;;;;;;8.00;7.20;;;;;;;30.58;37.05;98540.79;221654;1268;22640;-75
2022/07/14 12:24:58;;;;;;;4.10;3.20;;;;;;;30.61;36.75;98536.18;221970;1268;24232;-75
2022/07/14 12:30:01;;;;;;;3.50;2.90;;;;;;;30.50;36.39;98538.02;222031;1268;24189;-75
2022/07/14 12:35:07;;;;;;;3.20;3.00;;;;;;;30.27;36.68;98536.60;221996;1268;22544;-75
2022/07/14 12:40:12;;;;;;;3.70;3.40;;;;;;;30.11;37.25;98535.84;221988;1269;25244;-76
2022/07/14 12:45:15;;;;;;;3.00;2.80;;;;;;;29.97;37.23;98527.36;222348;1268;22556;-75
2022/07/14 12:50:21;;;;;;;3.10;2.90;;;;;;;29.85;36.84;98525.63;222179;1268;22921;-74
2022/07/14 12:55:44;;;;;;;3.20;2.90;;;;;;;29.94;36.86;98521.98;222399;1269;22556;-75
2022/07/14 13:00:54;;;;;;;3.60;3.10;;;;;;;30.15;36.93;98512.09;222206;1268;24252;-76
2022/07/14 13:05:57;;;;;;;2.60;2.50;;;;;;;30.31;36.68;98511.03;221909;1271;22528;-75
2022/07/14 13:11:07;;;;;;;3.40;3.10;;;;;;;30.39;36.50;98492.61;222478;1267;25344;-74
2022/07/14 13:16:24;;;;;;;3.40;3.00;;;;;;;30.43;36.36;98506.83;222023;1268;22525;-75
2022/07/14 13:22:01;;;;;;;4.00;3.40;;;;;;;30.55;36.70;98497.41;221848;1268;25280;-74
2022/07/14 13:27:03;;;;;;;4.50;3.90;;;;;;;30.69;36.34;98496.99;222355;1268;22574;-74
2022/07/14 13:32:08;;;;;;;7.20;4.10;;;;;;;30.62;36.01;98488.64;222224;1268;22550;-74
2022/07/14 13:37:15;;;;;;;3.30;3.10;;;;;;;30.37;35.99;98476.89;221867;1268;22736;-73
2022/07/14 13:42:20;;;;;;;2.80;2.60;;;;;;;30.24;36.49;98470.61;222286;1269;22532;-72
2022/07/14 13:47:23;;;;;;;3.50;3.00;;;;;;;30.13;36.82;98483.33;221499;1271;22528;-72
2022/07/14 13:52:25;;;;;;;4.20;3.00;;;;;;;30.05;36.86;98480.66;222069;1268;22532;-72
2022/07/14 13:57:27;;;;;;;3.40;3.10;;;;;;;29.98;36.70;98482.85;221767;1268;22586;-72
2022/07/14 14:03:22;;;;;;;3.60;3.30;;;;;;;29.94;36.31;98476.39;222086;1268;22568;-72
2022/07/14 14:07:52;;;;;;;3.90;3.50;;;;;;;29.88;36.69;98474.79;221929;1268;25427;-72
2022/07/14 14:12:58;;;;;;;3.30;3.10;;;;;;;29.83;36.80;98482.60;221577;1269;22607;-71
2022/07/14 14:18:00;;;;;;;3.40;3.10;;;;;;;29.67;36.86;98478.41;221600;1271;24258;-72
2022/07/14 14:23:05;;;;;;;3.20;3.00;;;;;;;29.31;37.15;98471.13;221725;1271;22550;-72
2022/07/14 14:28:17;;;;;;;3.30;2.90;;;;;;;28.85;37.63;98467.98;221440;1271;24223;-73
2022/07/14 14:33:19;;;;;;;5.80;4.00;;;;;;;28.48;38.22;98472.70;221517;1268;25254;-73
2022/07/14 14:38:22;;;;;;;4.70;3.60;;;;;;;28.15;38.91;98484.19;221519;1268;23008;-72
2022/07/14 14:43:31;;;;;;;4.50;3.90;;;;;;;27.88;39.47;98484.52;221620;1268;22646;-72
2022/07/14 14:48:36;;;;;;;4.80;3.50;;;;;;;27.68;40.04;98497.88;221642;1271;22597;-73
2022/07/14 14:53:38;;;;;;;3.70;3.40;;;;;;;27.44;41.13;98492.16;221601;1268;25242;-73
2022/07/14 14:58:44;;;;;;;4.70;3.90;;;;;;;27.18;42.12;98482.96;221230;1268;22547;-73
2022/07/14 15:03:52;;;;;;;4.40;3.90;;;;;;;26.89;43.09;98481.02;221398;1268;22550;-73
2022/07/14 15:08:57;;;;;;;4.10;3.70;;;;;;;26.70;43.90;98479.77;221572;1268;22585;-72
2022/07/14 15:14:00;;;;;;;4.20;3.50;;;;;;;26.57;44.26;98474.65;221572;1273;24216;-73
2022/07/14 15:19:02;;;;;;;4.60;3.60;;;;;;;26.60;44.65;98469.92;221178;1272;25036;-72
2022/07/14 15:24:05;;;;;;;3.70;3.40;;;;;;;26.80;44.83;98464.77;221330;1271;22576;-72
2022/07/14 15:29:08;;;;;;;5.70;3.40;;;;;;;27.06;44.99;98458.64;221365;1271;24877;-72
2022/07/14 15:34:11;;;;;;;3.20;3.00;;;;;;;27.35;44.53;98450.92;221437;1271;23040;-72
2022/07/14 15:45:14;;;;;;;3.90;3.60;;;;;;;27.46;43.92;98436.66;221582;1271;25401;-72
2022/07/14 15:50:17;;;;;;;8.60;7.80;;;;;;;27.45;44.00;98429.52;221704;1272;22551;-74
2022/07/14 15:55:21;;;;;;;4.40;4.00;;;;;;;27.62;44.07;98427.98;221302;1270;22624;-72
2022/07/14 16:00:24;;;;;;;4.10;3.80;;;;;;;27.80;43.14;98425.95;221336;1271;24248;-72
2022/07/14 16:05:33;;;;;;;4.20;3.80;;;;;;;27.99;42.72;98419.04;221250;1274;22605;-72
2022/07/14 16:10:53;;;;;;;4.30;3.80;;;;;;;27.98;42.21;98417.30;221259;1271;22566;-71
2022/07/14 16:16:13;;;;;;;4.10;3.50;;;;;;;27.75;41.96;98410.38;221230;1268;22935;-72
2022/07/14 16:21:21;;;;;;;3.50;3.30;;;;;;;27.58;42.15;98407.21;221263;1271;26348;-73
2022/07/14 16:26:33;;;;;;;3.60;3.30;;;;;;;27.57;42.41;98400.23;221627;1268;25437;-72
2022/07/14 16:31:49;;;;;;;3.70;3.40;;;;;;;27.56;42.22;98398.98;221473;1272;25457;-72
2022/07/14 16:37:12;;;;;;;3.60;3.30;;;;;;;27.42;42.32;98393.65;221307;1269;22569;-72
2022/07/14 16:42:14;;;;;;;4.20;3.80;;;;;;;27.17;42.47;98388.96;221524;1271;22555;-73
2022/07/14 16:47:17;;;;;;;4.10;3.70;;;;;;;26.89;42.48;98379.66;221717;1272;22531;-73
2022/07/14 16:52:22;;;;;;;4.50;4.20;;;;;;;26.54;42.98;98376.27;221429;1273;22541;-71
2022/07/14 16:57:24;;;;;;;4.30;3.90;;;;;;;26.22;43.44;98367.27;221277;1268;22697;-72
2022/07/14 17:02:26;;;;;;;4.70;3.90;;;;;;;26.03;43.98;98361.83;221441;1272;22602;-73
2022/07/14 17:07:29;;;;;;;4.20;3.80;;;;;;;25.92;44.35;98340.23;221142;1271;25309;-72
2022/07/14 17:12:31;;;;;;;4.20;3.90;;;;;;;25.95;44.50;98330.90;221339;1268;24224;-70
2022/07/14 17:17:34;;;;;;;12.20;10.90;;;;;;;26.03;44.82;98321.77;221068;1272;25306;-72
2022/07/14 17:22:52;;;;;;;5.20;4.70;;;;;;;26.13;44.81;98311.73;221230;1269;22636;-72
2022/07/14 17:27:54;;;;;;;9.10;8.20;;;;;;;26.14;44.49;98308.67;221657;1268;24148;-73
2022/07/14 17:33:05;;;;;;;4.60;4.20;;;;;;;26.05;44.49;98298.95;221474;1268;25308;-71
2022/07/14 17:38:10;;;;;;;6.90;6.10;;;;;;;25.89;44.99;98294.88;221419;1268;22533;-72
2022/07/14 17:43:13;;;;;;;3.90;3.60;;;;;;;25.75;45.17;98293.41;221436;1268;24117;-73
2022/07/14 17:48:35;;;;;;;4.30;4.00;;;;;;;25.62;45.42;98285.10;221221;1268;25358;-72
2022/07/14 17:53:37;;;;;;;4.20;3.80;;;;;;;25.50;45.66;98291.75;221575;1268;22543;-71
2022/07/14 17:59:00;;;;;;;5.00;4.20;;;;;;;25.38;46.00;98278.58;221475;1268;22540;-72
2022/07/14 18:04:03;;;;;;;4.60;4.20;;;;;;;25.29;46.92;98272.26;221370;1268;24377;-72
2022/07/14 18:09:05;;;;;;;5.40;4.90;;;;;;;25.18;48.36;98266.91;221326;1271;22543;-72
2022/07/14 18:14:07;;;;;;;4.60;4.20;;;;;;;24.98;49.17;98264.95;221371;1268;24128;-72
2022/07/14 18:19:10;;;;;;;4.90;4.40;;;;;;;24.75;49.23;98265.66;221510;1268;22531;-72
2022/07/14 18:24:13;;;;;;;5.10;4.70;;;;;;;24.54;49.83;98256.30;221643;1268;25517;-72
2022/07/14 18:29:17;;;;;;;7.40;5.00;;;;;;;24.38;50.74;98234.84;221233;1268;25745;-73
2022/07/14 18:34:20;;;;;;;8.30;7.60;;;;;;;24.15;53.59;98252.23;220779;1268;22717;-71
2022/07/14 18:39:23;;;;;;;8.30;7.40;;;;;;;23.83;54.89;98253.54;221596;1268;23367;-72
2022/07/14 18:49:49;;;;;;;7.40;6.10;;;;;;;23.44;56.39;98254.88;221650;1268;22528;-72
2022/07/14 18:54:51;;;;;;;6.60;5.90;;;;;;;23.33;56.31;98254.85;221253;1268;24281;-73
2022/07/14 18:59:54;;;;;;;8.30;6.40;;;;;;;23.23;57.15;98250.08;221640;1268;22733;-73
2022/07/14 19:04:56;;;;;;;7.70;7.00;;;;;;;23.11;57.77;98268.82;221419;1268;22808;-72
2022/07/14 19:10:02;;;;;;;7.40;6.50;;;;;;;22.95;59.20;98315.24;221583;1268;22541;-72
2022/07/14 19:15:06;;;;;;;7.60;5.80;;;;;;;22.80;61.60;98347.77;221558;1268;26335;-73
2022/07/14 19:20:09;;;;;;;6.90;6.20;;;;;;;22.38;64.09;98379.11;221569;1268;22574;-72
2022/07/14 19:25:24;;;;;;;;;;;;;;;;;;;;;
2022/07/14 19:30:30;;;;;;;8.00;7.10;;;;;;;21.38;66.29;98419.22;221675;1268;22536;-73
2022/07/14 19:35:56;;;;;;;6.40;5.40;;;;;;;20.83;67.49;98465.33;221220;1271;23789;-73
2022/07/14 19:41:00;;;;;;;6.50;5.90;;;;;;;20.40;68.43;98492.26;221146;1269;25357;-73
2022/07/14 19:46:03;;;;;;;7.90;7.10;;;;;;;19.93;70.16;98487.06;221151;1271;22984;-73
2022/07/14 19:51:12;;;;;;;7.90;7.20;;;;;;;19.48;71.71;98499.95;221360;1268;25433;-73
2022/07/14 19:56:15;;;;;;;8.10;7.30;;;;;;;19.15;72.68;98518.12;221207;1271;22604;-72
2022/07/14 20:01:17;;;;;;;9.30;8.30;;;;;;;18.91;73.61;98504.59;221534;1268;24351;-74
2022/07/14 20:06:32;;;;;;;14.50;12.20;;;;;;;18.74;74.56;98471.21;221174;1268;23032;-73
2022/07/14 20:17:20;;;;;;;10.10;9.20;;;;;;;18.45;75.40;98455.75;221652;1268;23379;-73
2022/07/14 20:22:44;;;;;;;9.20;8.50;;;;;;;18.29;75.93;98433.73;221756;1268;22664;-73
2022/07/14 20:33:50;;;;;;;9.80;8.90;;;;;;;18.18;77.13;98422.45;221464;1268;24252;-73
2022/07/14 20:39:22;;;;;;;8.70;7.80;;;;;;;18.15;77.16;98402.16;221407;1268;24326;-72
2022/07/14 20:45:05;;;;;;;;;;;;;;;;;;;;;
2022/07/14 20:50:57;;;;;;;8.70;8.00;;;;;;;18.13;78.54;98465.47;221605;1268;22657;-73
2022/07/14 20:56:02;;;;;;;9.60;8.70;;;;;;;18.15;79.90;98474.41;221270;1271;22559;-73
2022/07/14 21:01:08;;;;;;;9.60;8.60;;;;;;;18.14;80.33;98469.27;221283;1271;22601;-73
2022/07/14 21:06:30;;;;;;;9.30;8.40;;;;;;;18.11;80.91;98475.80;221492;1271;25255;-74
2022/07/14 21:11:35;;;;;;;8.70;7.80;;;;;;;18.10;81.14;98499.38;221202;1268;24883;-73
2022/07/14 21:16:54;;;;;;;;;;;;;;;;;;;;;
2022/07/14 21:22:20;;;;;;;9.80;8.10;;;;;;;18.01;82.58;98496.95;221128;1270;24420;-73
2022/07/14 21:27:42;;;;;;;11.40;10.10;;;;;;;17.93;83.05;98483.11;221296;1268;25459;-73
2022/07/14 21:33:11;;;;;;;11.70;9.60;;;;;;;17.85;83.18;98458.55;221223;1271;22646;-73
2022/07/14 21:38:34;;;;;;;11.20;10.10;;;;;;;17.80;83.04;98448.05;221181;1271;24864;-72
2022/07/14 21:43:57;;;;;;;10.30;9.30;;;;;;;17.74;83.72;98453.44;221351;1269;22535;-73
2022/07/14 21:50:01;;;;;;;10.90;9.90;;;;;;;17.66;84.20;98435.96;221356;1268;23037;-73
2022/07/14 21:55:41;;;;;;;11.10;10.00;;;;;;;17.61;84.50;98406.20;221442;1268;22528;-73
2022/07/14 22:00:50;;;;;;;10.60;9.70;;;;;;;17.59;84.79;98391.83;221376;1271;23867;-72
2022/07/14 22:06:17;;;;;;;10.80;9.80;;;;;;;17.58;84.41;98316.17;221102;1268;22893;-72
2022/07/14 22:11:28;;;;;;;12.00;10.70;;;;;;;17.57;84.40;98311.51;221506;1268;24221;-72
2022/07/14 22:17:00;;;;;;;9.70;8.80;;;;;;;17.57;84.61;98316.33;221300;1271;24208;-73
2022/07/14 22:22:02;;;;;;;10.90;9.50;;;;;;;17.53;85.07;98334.70;221582;1268;22561;-73
2022/07/14 22:27:34;;;;;;;11.30;10.10;;;;;;;17.48;85.53;98366.96;221544;1268;23131;-73
2022/07/14 22:32:55;;;;;;;10.30;9.40;;;;;;;17.42;85.56;98371.68;221252;1268;22550;-73
2022/07/14 22:37:58;;;;;;;11.00;9.90;;;;;;;17.36;85.88;98369.61;221672;1268;26396;-73
2022/07/14 22:43:51;;;;;;;11.50;10.30;;;;;;;17.32;86.28;98366.67;221431;1268;25430;-73
2022/07/14 22:49:41;;;;;;;13.60;11.50;;;;;;;17.28;86.71;98380.05;221745;1268;22547;-73
2022/07/14 22:55:30;;;;;;;12.80;11.50;;;;;;;17.28;87.01;98388.08;221641;1268;22531;-73
2022/07/14 23:00:32;;;;;;;14.00;12.70;;;;;;;17.28;87.24;98386.23;221888;1268;22544;-73
2022/07/14 23:05:38;;;;;;;14.80;13.30;;;;;;;17.28;87.28;98376.86;221874;1268;22531;-72
2022/07/14 23:22:01;;;;;;;11.60;10.60;;;;;;;17.30;87.66;98397.95;221657;1268;22983;-73
2022/07/14 23:27:16;;;;;;;12.60;11.30;;;;;;;17.30;87.87;98393.02;222194;1268;24198;-73
2022/07/14 23:32:34;;;;;;;13.40;12.00;;;;;;;17.29;88.05;98392.12;221991;1268;22542;-73
2022/07/14 23:37:38;;;;;;;13.40;12.30;;;;;;;17.26;88.24;98395.07;222073;1268;22577;-71
2022/07/14 23:42:42;;;;;;;13.80;12.40;;;;;;;17.23;88.43;98402.39;222043;1268;22542;-73
2022/07/14 23:47:44;;;;;;;13.20;11.90;;;;;;;17.19;88.24;98410.48;222162;1268;22557;-72
2022/07/14 23:53:10;;;;;;;14.20;12.80;;;;;;;17.18;88.35;98413.92;222050;1268;22742;-73
2022/07/14 23:58:16;;;;;;;13.60;12.30;;;;;;;17.18;88.47;98424.98;222048;1268;22550;-72
